sensor_id;sensor_type;location;lat;lon;timestamp;P1;durP1;ratioP1;P2;durP2;ratioP2
2502;SDS011;1262;50.918;6.922;2022-07-29T00:00:24;3.40;;;1.97;;
2502;SDS011;1262;50.918;6.922;2022-07-29T00:02:52;3.60;;;1.97;;
2502;SDS011;1262;50.918;6.922;2022-07-29T00:05:20;2.53;;;2.13;;
2502;SDS011;1262;50.918;6.922;2022-07-29T00:07:47;2.47;;;2.00;;
2502;SDS011;1262;50.918;6.922;2022-07-29T00:10:14;4.00;;;2.47;;
2502;SDS011;1262;50.918;6.922;2022-07-29T00:12:41;2.13;;;1.93;;
2502;SDS011;1262;50.918;6.922;2022-07-29T00:15:10;2.97;;;1.80;;
2502;SDS011;1262;50.918;6.922;2022-07-29T00:17:37;2.90;;;1.93;;
2502;SDS011;1262;50.918;6.922;2022-07-29T00:20:05;2.27;;;1.80;;
2502;SDS011;1262;50.918;6.922;2022-07-29T00:22:32;3.13;;;2.20;;
2502;SDS011;1262;50.918;6.922;2022-07-29T00:24:59;2.40;;;1.83;;
2502;SDS011;1262;50.918;6.922;2022-07-29T00:27:28;7.70;;;2.20;;
2502;SDS011;1262;50.918;6.922;2022-07-29T00:29:55;4.80;;;2.00;;
2502;SDS011;1262;50.918;6.922;2022-07-29T00:32:23;2.20;;;1.90;;
2502;SDS011;1262;50.918;6.922;2022-07-29T00:34:51;3.20;;;2.20;;
2502;SDS011;1262;50.918;6.922;2022-07-29T00:37:32;2.47;;;2.00;;
2502;SDS011;1262;50.918;6.922;2022-07-29T00:39:59;7.07;;;2.90;;
2502;SDS011;1262;50.918;6.922;2022-07-29T00:42:26;6.43;;;2.60;;
2502;SDS011;1262;50.918;6.922;2022-07-29T00:44:53;6.50;;;2.20;;
2502;SDS011;1262;50.918;6.922;2022-07-29T00:47:20;3.60;;;2.20;;
2502;SDS011;1262;50.918;6.922;2022-07-29T00:49:49;4.23;;;2.60;;
2502;SDS011;1262;50.918;6.922;2022-07-29T00:52:16;3.90;;;2.20;;
2502;SDS011;1262;50.918;6.922;2022-07-29T00:54:43;4.37;;;1.87;;
2502;SDS011;1262;50.918;6.922;2022-07-29T00:57:10;3.83;;;1.63;;
2502;SDS011;1262;50.918;6.922;2022-07-29T00:59:38;5.63;;;2.17;;
2502;SDS011;1262;50.918;6.922;2022-07-29T01:02:05;5.27;;;2.00;;
2502;SDS011;1262;50.918;6.922;2022-07-29T01:04:32;3.70;;;2.23;;
2502;SDS011;1262;50.918;6.922;2022-07-29T01:07:01;3.27;;;2.30;;
2502;SDS011;1262;50.918;6.922;2022-07-29T01:09:29;3.30;;;2.33;;
2502;SDS011;1262;50.918;6.922;2022-07-29T01:11:57;3.10;;;2.00;;
2502;SDS011;1262;50.918;6.922;2022-07-29T01:14:25;6.03;;;2.30;;
2502;SDS011;1262;50.918;6.922;2022-07-29T01:16:54;4.60;;;2.17;;
2502;SDS011;1262;50.918;6.922;2022-07-29T01:19:33;5.97;;;2.43;;
2502;SDS011;1262;50.918;6.922;2022-07-29T01:22:08;2.93;;;2.33;;
2502;SDS011;1262;50.918;6.922;2022-07-29T01:24:42;3.20;;;2.77;;
2502;SDS011;1262;50.918;6.922;2022-07-29T01:27:16;4.40;;;2.60;;
2502;SDS011;1262;50.918;6.922;2022-07-29T01:29:51;3.80;;;2.60;;
2502;SDS011;1262;50.918;6.922;2022-07-29T01:32:22;3.70;;;2.37;;
2502;SDS011;1262;50.918;6.922;2022-07-29T01:34:52;6.80;;;2.70;;
2502;SDS011;1262;50.918;6.922;2022-07-29T01:37:21;4.07;;;2.40;;
2502;SDS011;1262;50.918;6.922;2022-07-29T01:39:51;4.23;;;2.60;;
2502;SDS011;1262;50.918;6.922;2022-07-29T01:42:20;4.50;;;2.70;;
2502;SDS011;1262;50.918;6.922;2022-07-29T01:44:53;4.23;;;2.57;;
2502;SDS011;1262;50.918;6.922;2022-07-29T01:47:23;4.37;;;2.70;;
2502;SDS011;1262;50.918;6.922;2022-07-29T01:49:52;3.97;;;2.53;;
2502;SDS011;1262;50.918;6.922;2022-07-29T01:52:23;4.13;;;2.87;;
2502;SDS011;1262;50.918;6.922;2022-07-29T01:54:52;3.13;;;2.47;;
2502;SDS011;1262;50.918;6.922;2022-07-29T01:57:21;4.30;;;2.50;;
2502;SDS011;1262;50.918;6.922;2022-07-29T01:59:51;4.10;;;2.50;;
2502;SDS011;1262;50.918;6.922;2022-07-29T02:02:19;2.60;;;2.27;;
2502;SDS011;1262;50.918;6.922;2022-07-29T02:04:47;3.40;;;2.50;;
2502;SDS011;1262;50.918;6.922;2022-07-29T02:07:17;6.60;;;2.60;;
2502;SDS011;1262;50.918;6.922;2022-07-29T02:09:44;3.83;;;2.47;;
2502;SDS011;1262;50.918;6.922;2022-07-29T02:12:13;3.40;;;2.90;;
2502;SDS011;1262;50.918;6.922;2022-07-29T02:14:42;3.30;;;3.00;;
2502;SDS011;1262;50.918;6.922;2022-07-29T02:17:13;4.03;;;2.57;;
2502;SDS011;1262;50.918;6.922;2022-07-29T02:19:40;4.20;;;2.77;;
2502;SDS011;1262;50.918;6.922;2022-07-29T02:22:09;4.10;;;2.30;;
2502;SDS011;1262;50.918;6.922;2022-07-29T02:24:38;3.40;;;2.50;;
2502;SDS011;1262;50.918;6.922;2022-07-29T02:27:05;3.90;;;2.70;;
2502;SDS011;1262;50.918;6.922;2022-07-29T02:29:34;3.93;;;2.47;;
2502;SDS011;1262;50.918;6.922;2022-07-29T02:32:02;4.37;;;2.87;;
2502;SDS011;1262;50.918;6.922;2022-07-29T02:34:31;3.10;;;2.50;;
2502;SDS011;1262;50.918;6.922;2022-07-29T02:36:59;3.80;;;2.37;;
2502;SDS011;1262;50.918;6.922;2022-07-29T02:39:26;2.83;;;2.20;;
2502;SDS011;1262;50.918;6.922;2022-07-29T02:41:55;2.73;;;2.30;;
2502;SDS011;1262;50.918;6.922;2022-07-29T02:44:23;2.60;;;2.40;;
2502;SDS011;1262;50.918;6.922;2022-07-29T02:46:52;4.73;;;2.80;;
2502;SDS011;1262;50.918;6.922;2022-07-29T02:49:23;3.17;;;2.50;;
2502;SDS011;1262;50.918;6.922;2022-07-29T02:51:57;5.67;;;2.47;;
2502;SDS011;1262;50.918;6.922;2022-07-29T02:54:26;6.67;;;2.73;;
2502;SDS011;1262;50.918;6.922;2022-07-29T02:56:56;4.10;;;2.47;;
2502;SDS011;1262;50.918;6.922;2022-07-29T02:59:26;2.83;;;2.30;;
2502;SDS011;1262;50.918;6.922;2022-07-29T03:01:54;3.10;;;2.30;;
2502;SDS011;1262;50.918;6.922;2022-07-29T03:04:22;4.33;;;2.20;;
2502;SDS011;1262;50.918;6.922;2022-07-29T03:06:51;4.37;;;2.27;;
2502;SDS011;1262;50.918;6.922;2022-07-29T03:09:20;5.47;;;2.50;;
2502;SDS011;1262;50.918;6.922;2022-07-29T03:11:48;4.90;;;3.17;;
2502;SDS011;1262;50.918;6.922;2022-07-29T03:14:16;3.87;;;2.47;;
2502;SDS011;1262;50.918;6.922;2022-07-29T03:16:43;4.00;;;2.80;;
2502;SDS011;1262;50.918;6.922;2022-07-29T03:19:11;3.67;;;2.47;;
2502;SDS011;1262;50.918;6.922;2022-07-29T03:21:39;4.33;;;2.50;;
2502;SDS011;1262;50.918;6.922;2022-07-29T03:24:06;6.30;;;2.80;;
2502;SDS011;1262;50.918;6.922;2022-07-29T03:26:34;5.03;;;2.37;;
2502;SDS011;1262;50.918;6.922;2022-07-29T03:29:02;4.90;;;2.20;;
2502;SDS011;1262;50.918;6.922;2022-07-29T03:31:29;4.70;;;2.27;;
2502;SDS011;1262;50.918;6.922;2022-07-29T03:33:56;3.40;;;2.20;;
2502;SDS011;1262;50.918;6.922;2022-07-29T03:36:23;3.37;;;2.40;;
2502;SDS011;1262;50.918;6.922;2022-07-29T03:38:50;4.23;;;2.40;;
2502;SDS011;1262;50.918;6.922;2022-07-29T03:41:19;3.40;;;2.47;;
2502;SDS011;1262;50.918;6.922;2022-07-29T03:43:49;3.77;;;2.23;;
2502;SDS011;1262;50.918;6.922;2022-07-29T03:46:18;3.80;;;2.53;;
2502;SDS011;1262;50.918;6.922;2022-07-29T03:48:48;6.13;;;2.43;;
2502;SDS011;1262;50.918;6.922;2022-07-29T03:51:15;4.80;;;2.47;;
2502;SDS011;1262;50.918;6.922;2022-07-29T03:53:42;3.27;;;2.23;;
2502;SDS011;1262;50.918;6.922;2022-07-29T03:56:10;4.57;;;2.30;;
2502;SDS011;1262;50.918;6.922;2022-07-29T03:58:38;2.90;;;2.10;;
2502;SDS011;1262;50.918;6.922;2022-07-29T04:01:07;3.90;;;2.00;;
2502;SDS011;1262;50.918;6.922;2022-07-29T04:03:34;4.13;;;2.53;;
2502;SDS011;1262;50.918;6.922;2022-07-29T04:06:02;6.47;;;2.70;;
2502;SDS011;1262;50.918;6.922;2022-07-29T04:08:31;3.60;;;2.00;;
2502;SDS011;1262;50.918;6.922;2022-07-29T04:10:58;4.33;;;2.30;;
2502;SDS011;1262;50.918;6.922;2022-07-29T04:13:26;5.83;;;2.50;;
2502;SDS011;1262;50.918;6.922;2022-07-29T04:15:53;11.07;;;2.80;;
2502;SDS011;1262;50.918;6.922;2022-07-29T04:18:22;3.00;;;2.50;;
2502;SDS011;1262;50.918;6.922;2022-07-29T04:20:49;3.63;;;2.20;;
2502;SDS011;1262;50.918;6.922;2022-07-29T04:23:16;4.80;;;2.80;;
2502;SDS011;1262;50.918;6.922;2022-07-29T04:25:43;3.90;;;2.37;;
2502;SDS011;1262;50.918;6.922;2022-07-29T04:28:10;5.70;;;3.07;;
2502;SDS011;1262;50.918;6.922;2022-07-29T04:30:38;4.27;;;3.50;;
2502;SDS011;1262;50.918;6.922;2022-07-29T04:33:05;6.20;;;2.83;;
2502;SDS011;1262;50.918;6.922;2022-07-29T04:35:35;4.93;;;3.10;;
2502;SDS011;1262;50.918;6.922;2022-07-29T04:38:03;6.70;;;3.30;;
2502;SDS011;1262;50.918;6.922;2022-07-29T04:40:30;9.03;;;2.80;;
2502;SDS011;1262;50.918;6.922;2022-07-29T04:42:58;3.77;;;2.50;;
2502;SDS011;1262;50.918;6.922;2022-07-29T04:45:26;4.00;;;2.67;;
2502;SDS011;1262;50.918;6.922;2022-07-29T04:47:53;5.40;;;2.40;;
2502;SDS011;1262;50.918;6.922;2022-07-29T04:50:20;7.53;;;2.70;;
2502;SDS011;1262;50.918;6.922;2022-07-29T04:52:49;4.87;;;2.37;;
2502;SDS011;1262;50.918;6.922;2022-07-29T04:55:16;3.33;;;2.43;;
2502;SDS011;1262;50.918;6.922;2022-07-29T04:57:43;4.23;;;2.30;;
2502;SDS011;1262;50.918;6.922;2022-07-29T05:00:11;6.00;;;2.83;;
2502;SDS011;1262;50.918;6.922;2022-07-29T05:02:39;4.90;;;3.00;;
2502;SDS011;1262;50.918;6.922;2022-07-29T05:05:06;8.90;;;2.73;;
2502;SDS011;1262;50.918;6.922;2022-07-29T05:07:34;5.00;;;2.50;;
2502;SDS011;1262;50.918;6.922;2022-07-29T05:10:02;6.30;;;2.90;;
2502;SDS011;1262;50.918;6.922;2022-07-29T05:12:29;7.10;;;2.40;;
2502;SDS011;1262;50.918;6.922;2022-07-29T05:14:57;5.40;;;2.60;;
2502;SDS011;1262;50.918;6.922;2022-07-29T05:17:24;4.10;;;2.63;;
2502;SDS011;1262;50.918;6.922;2022-07-29T05:19:51;7.20;;;2.77;;
2502;SDS011;1262;50.918;6.922;2022-07-29T05:22:19;5.67;;;2.20;;
2502;SDS011;1262;50.918;6.922;2022-07-29T05:24:46;5.50;;;2.60;;
2502;SDS011;1262;50.918;6.922;2022-07-29T05:27:15;4.13;;;2.30;;
2502;SDS011;1262;50.918;6.922;2022-07-29T05:29:42;4.40;;;2.30;;
2502;SDS011;1262;50.918;6.922;2022-07-29T05:32:09;5.40;;;2.60;;
2502;SDS011;1262;50.918;6.922;2022-07-29T05:34:36;4.20;;;2.17;;
2502;SDS011;1262;50.918;6.922;2022-07-29T05:37:04;4.30;;;2.53;;
2502;SDS011;1262;50.918;6.922;2022-07-29T05:39:31;4.97;;;2.87;;
2502;SDS011;1262;50.918;6.922;2022-07-29T05:41:58;7.73;;;2.43;;
2502;SDS011;1262;50.918;6.922;2022-07-29T05:44:27;4.00;;;2.43;;
2502;SDS011;1262;50.918;6.922;2022-07-29T05:46:54;3.43;;;2.10;;
2502;SDS011;1262;50.918;6.922;2022-07-29T05:49:21;3.33;;;2.00;;
2502;SDS011;1262;50.918;6.922;2022-07-29T05:51:48;6.93;;;2.80;;
2502;SDS011;1262;50.918;6.922;2022-07-29T05:54:15;5.57;;;2.17;;
2502;SDS011;1262;50.918;6.922;2022-07-29T05:56:42;4.03;;;2.10;;
2502;SDS011;1262;50.918;6.922;2022-07-29T05:59:10;4.33;;;2.60;;
2502;SDS011;1262;50.918;6.922;2022-07-29T06:01:38;4.80;;;2.20;;
2502;SDS011;1262;50.918;6.922;2022-07-29T06:04:06;7.00;;;2.50;;
2502;SDS011;1262;50.918;6.922;2022-07-29T06:06:33;4.27;;;2.33;;
2502;SDS011;1262;50.918;6.922;2022-07-29T06:09:01;4.43;;;2.03;;
2502;SDS011;1262;50.918;6.922;2022-07-29T06:11:28;6.63;;;2.43;;
2502;SDS011;1262;50.918;6.922;2022-07-29T06:13:55;4.53;;;2.20;;
2502;SDS011;1262;50.918;6.922;2022-07-29T06:16:23;3.00;;;2.30;;
2502;SDS011;1262;50.918;6.922;2022-07-29T06:18:52;3.87;;;2.80;;
2502;SDS011;1262;50.918;6.922;2022-07-29T06:21:19;5.73;;;2.40;;
2502;SDS011;1262;50.918;6.922;2022-07-29T06:23:46;2.83;;;2.37;;
2502;SDS011;1262;50.918;6.922;2022-07-29T06:26:13;3.80;;;2.03;;
2502;SDS011;1262;50.918;6.922;2022-07-29T06:28:41;4.47;;;3.07;;
2502;SDS011;1262;50.918;6.922;2022-07-29T06:31:08;6.87;;;3.07;;
2502;SDS011;1262;50.918;6.922;2022-07-29T06:33:35;5.37;;;2.50;;
2502;SDS011;1262;50.918;6.922;2022-07-29T06:36:04;5.50;;;2.87;;
2502;SDS011;1262;50.918;6.922;2022-07-29T06:38:32;4.47;;;2.70;;
2502;SDS011;1262;50.918;6.922;2022-07-29T06:40:59;7.30;;;2.77;;
2502;SDS011;1262;50.918;6.922;2022-07-29T06:43:28;7.30;;;2.60;;
2502;SDS011;1262;50.918;6.922;2022-07-29T06:45:57;5.90;;;2.57;;
2502;SDS011;1262;50.918;6.922;2022-07-29T06:48:24;6.00;;;3.00;;
2502;SDS011;1262;50.918;6.922;2022-07-29T06:50:51;4.70;;;2.70;;
2502;SDS011;1262;50.918;6.922;2022-07-29T06:53:20;4.97;;;2.87;;
2502;SDS011;1262;50.918;6.922;2022-07-29T06:55:47;7.43;;;2.97;;
2502;SDS011;1262;50.918;6.922;2022-07-29T06:58:14;7.23;;;3.87;;
2502;SDS011;1262;50.918;6.922;2022-07-29T07:00:43;5.60;;;2.67;;
2502;SDS011;1262;50.918;6.922;2022-07-29T07:03:10;9.43;;;3.23;;
2502;SDS011;1262;50.918;6.922;2022-07-29T07:05:38;11.53;;;3.00;;
2502;SDS011;1262;50.918;6.922;2022-07-29T07:08:05;6.70;;;2.63;;
2502;SDS011;1262;50.918;6.922;2022-07-29T07:10:34;5.47;;;3.17;;
2502;SDS011;1262;50.918;6.922;2022-07-29T07:13:01;4.93;;;3.20;;
2502;SDS011;1262;50.918;6.922;2022-07-29T07:15:28;6.37;;;3.50;;
2502;SDS011;1262;50.918;6.922;2022-07-29T07:17:56;9.43;;;2.73;;
2502;SDS011;1262;50.918;6.922;2022-07-29T07:20:23;5.70;;;2.80;;
2502;SDS011;1262;50.918;6.922;2022-07-29T07:22:51;9.30;;;3.20;;
2502;SDS011;1262;50.918;6.922;2022-07-29T07:25:18;7.40;;;3.63;;
2502;SDS011;1262;50.918;6.922;2022-07-29T07:27:46;5.53;;;3.10;;
2502;SDS011;1262;50.918;6.922;2022-07-29T07:30:14;5.07;;;3.30;;
2502;SDS011;1262;50.918;6.922;2022-07-29T07:32:41;6.63;;;3.03;;
2502;SDS011;1262;50.918;6.922;2022-07-29T07:35:08;6.93;;;4.30;;
2502;SDS011;1262;50.918;6.922;2022-07-29T07:37:36;4.63;;;3.83;;
2502;SDS011;1262;50.918;6.922;2022-07-29T07:40:06;6.93;;;3.43;;
2502;SDS011;1262;50.918;6.922;2022-07-29T07:42:33;8.60;;;3.10;;
2502;SDS011;1262;50.918;6.922;2022-07-29T07:45:02;7.07;;;3.57;;
2502;SDS011;1262;50.918;6.922;2022-07-29T07:47:29;6.60;;;3.27;;
2502;SDS011;1262;50.918;6.922;2022-07-29T07:49:57;8.27;;;3.80;;
2502;SDS011;1262;50.918;6.922;2022-07-29T07:52:25;7.87;;;5.60;;
2502;SDS011;1262;50.918;6.922;2022-07-29T07:54:52;6.03;;;3.60;;
2502;SDS011;1262;50.918;6.922;2022-07-29T07:57:19;5.63;;;3.20;;
2502;SDS011;1262;50.918;6.922;2022-07-29T07:59:46;5.70;;;3.83;;
2502;SDS011;1262;50.918;6.922;2022-07-29T08:02:15;5.17;;;3.57;;
2502;SDS011;1262;50.918;6.922;2022-07-29T08:04:42;7.00;;;3.90;;
2502;SDS011;1262;50.918;6.922;2022-07-29T08:07:09;5.83;;;4.13;;
2502;SDS011;1262;50.918;6.922;2022-07-29T08:09:36;10.10;;;4.37;;
2502;SDS011;1262;50.918;6.922;2022-07-29T08:12:04;6.00;;;4.50;;
2502;SDS011;1262;50.918;6.922;2022-07-29T08:14:31;4.87;;;3.10;;
2502;SDS011;1262;50.918;6.922;2022-07-29T08:16:59;4.10;;;3.40;;
2502;SDS011;1262;50.918;6.922;2022-07-29T08:19:27;7.73;;;3.60;;
2502;SDS011;1262;50.918;6.922;2022-07-29T08:21:55;3.97;;;3.50;;
2502;SDS011;1262;50.918;6.922;2022-07-29T08:24:22;6.30;;;3.90;;
2502;SDS011;1262;50.918;6.922;2022-07-29T08:27:03;4.13;;;3.00;;
2502;SDS011;1262;50.918;6.922;2022-07-29T08:29:30;9.30;;;3.60;;
2502;SDS011;1262;50.918;6.922;2022-07-29T08:31:57;9.83;;;3.67;;
2502;SDS011;1262;50.918;6.922;2022-07-29T08:34:25;11.00;;;4.30;;
2502;SDS011;1262;50.918;6.922;2022-07-29T08:36:53;5.30;;;3.97;;
2502;SDS011;1262;50.918;6.922;2022-07-29T08:39:20;7.53;;;4.13;;
2502;SDS011;1262;50.918;6.922;2022-07-29T08:41:48;9.57;;;3.77;;
2502;SDS011;1262;50.918;6.922;2022-07-29T08:44:15;6.77;;;3.97;;
2502;SDS011;1262;50.918;6.922;2022-07-29T08:46:43;7.30;;;4.00;;
2502;SDS011;1262;50.918;6.922;2022-07-29T08:49:10;8.77;;;4.30;;
2502;SDS011;1262;50.918;6.922;2022-07-29T08:51:38;9.83;;;5.40;;
2502;SDS011;1262;50.918;6.922;2022-07-29T08:54:08;9.57;;;6.03;;
2502;SDS011;1262;50.918;6.922;2022-07-29T08:56:36;13.73;;;6.30;;
2502;SDS011;1262;50.918;6.922;2022-07-29T08:59:04;8.73;;;6.20;;
2502;SDS011;1262;50.918;6.922;2022-07-29T09:01:32;9.70;;;6.90;;
2502;SDS011;1262;50.918;6.922;2022-07-29T09:03:59;9.07;;;6.03;;
2502;SDS011;1262;50.918;6.922;2022-07-29T09:06:28;7.40;;;5.60;;
2502;SDS011;1262;50.918;6.922;2022-07-29T09:08:58;7.40;;;4.70;;
2502;SDS011;1262;50.918;6.922;2022-07-29T09:11:27;8.47;;;4.63;;
2502;SDS011;1262;50.918;6.922;2022-07-29T09:13:54;9.47;;;5.00;;
2502;SDS011;1262;50.918;6.922;2022-07-29T09:16:21;11.30;;;4.50;;
2502;SDS011;1262;50.918;6.922;2022-07-29T09:18:49;9.23;;;4.20;;
2502;SDS011;1262;50.918;6.922;2022-07-29T09:21:16;6.90;;;4.17;;
2502;SDS011;1262;50.918;6.922;2022-07-29T09:23:59;6.10;;;4.07;;
2502;SDS011;1262;50.918;6.922;2022-07-29T09:26:29;6.00;;;3.97;;
2502;SDS011;1262;50.918;6.922;2022-07-29T09:28:56;6.37;;;3.40;;
2502;SDS011;1262;50.918;6.922;2022-07-29T09:31:28;7.30;;;4.27;;
2502;SDS011;1262;50.918;6.922;2022-07-29T09:33:58;10.17;;;3.80;;
2502;SDS011;1262;50.918;6.922;2022-07-29T09:36:26;7.13;;;3.43;;
2502;SDS011;1262;50.918;6.922;2022-07-29T09:38:56;8.27;;;3.80;;
2502;SDS011;1262;50.918;6.922;2022-07-29T09:41:25;9.47;;;4.77;;
2502;SDS011;1262;50.918;6.922;2022-07-29T09:43:55;3.73;;;3.27;;
2502;SDS011;1262;50.918;6.922;2022-07-29T09:46:23;4.20;;;3.63;;
2502;SDS011;1262;50.918;6.922;2022-07-29T09:49:05;6.63;;;3.13;;
2502;SDS011;1262;50.918;6.922;2022-07-29T09:51:33;8.10;;;3.47;;
2502;SDS011;1262;50.918;6.922;2022-07-29T09:54:00;5.90;;;3.10;;
2502;SDS011;1262;50.918;6.922;2022-07-29T09:56:44;5.87;;;3.10;;
2502;SDS011;1262;50.918;6.922;2022-07-29T09:59:14;7.50;;;3.50;;
2502;SDS011;1262;50.918;6.922;2022-07-29T10:01:42;4.40;;;2.83;;
2502;SDS011;1262;50.918;6.922;2022-07-29T10:04:09;5.97;;;3.20;;
2502;SDS011;1262;50.918;6.922;2022-07-29T10:09:07;6.27;;;3.33;;
2502;SDS011;1262;50.918;6.922;2022-07-29T10:11:34;6.00;;;3.20;;
2502;SDS011;1262;50.918;6.922;2022-07-29T10:14:02;6.97;;;3.37;;
2502;SDS011;1262;50.918;6.922;2022-07-29T10:16:31;7.43;;;3.30;;
2502;SDS011;1262;50.918;6.922;2022-07-29T10:18:59;4.20;;;2.73;;
2502;SDS011;1262;50.918;6.922;2022-07-29T10:21:26;5.37;;;3.30;;
2502;SDS011;1262;50.918;6.922;2022-07-29T10:23:54;7.00;;;2.93;;
2502;SDS011;1262;50.918;6.922;2022-07-29T10:26:22;5.20;;;2.90;;
2502;SDS011;1262;50.918;6.922;2022-07-29T10:28:49;4.53;;;2.77;;
2502;SDS011;1262;50.918;6.922;2022-07-29T10:31:19;6.90;;;3.03;;
2502;SDS011;1262;50.918;6.922;2022-07-29T10:33:51;3.67;;;3.17;;
2502;SDS011;1262;50.918;6.922;2022-07-29T10:36:27;7.93;;;2.80;;
2502;SDS011;1262;50.918;6.922;2022-07-29T10:39:00;8.43;;;3.70;;
2502;SDS011;1262;50.918;6.922;2022-07-29T10:41:36;4.77;;;3.17;;
2502;SDS011;1262;50.918;6.922;2022-07-29T10:44:05;6.80;;;3.13;;
2502;SDS011;1262;50.918;6.922;2022-07-29T10:46:34;6.37;;;3.37;;
2502;SDS011;1262;50.918;6.922;2022-07-29T10:49:08;3.97;;;3.10;;
2502;SDS011;1262;50.918;6.922;2022-07-29T10:54:17;3.60;;;2.97;;
2502;SDS011;1262;50.918;6.922;2022-07-29T10:56:44;9.00;;;3.37;;
2502;SDS011;1262;50.918;6.922;2022-07-29T11:01:56;4.87;;;2.87;;
2502;SDS011;1262;50.918;6.922;2022-07-29T11:07:07;4.80;;;2.77;;
2502;SDS011;1262;50.918;6.922;2022-07-29T11:09:34;4.27;;;2.90;;
2502;SDS011;1262;50.918;6.922;2022-07-29T11:12:02;5.30;;;3.10;;
2502;SDS011;1262;50.918;6.922;2022-07-29T11:17:11;6.23;;;3.47;;
2502;SDS011;1262;50.918;6.922;2022-07-29T11:19:39;8.07;;;3.47;;
2502;SDS011;1262;50.918;6.922;2022-07-29T11:22:09;6.40;;;2.80;;
2502;SDS011;1262;50.918;6.922;2022-07-29T11:24:36;7.67;;;2.93;;
2502;SDS011;1262;50.918;6.922;2022-07-29T11:27:12;9.13;;;3.07;;
2502;SDS011;1262;50.918;6.922;2022-07-29T11:29:41;6.67;;;2.80;;
2502;SDS011;1262;50.918;6.922;2022-07-29T11:32:14;5.63;;;3.20;;
2502;SDS011;1262;50.918;6.922;2022-07-29T11:34:44;5.10;;;3.03;;
2502;SDS011;1262;50.918;6.922;2022-07-29T11:42:38;11.33;;;3.13;;
2502;SDS011;1262;50.918;6.922;2022-07-29T11:45:06;5.40;;;2.53;;
2502;SDS011;1262;50.918;6.922;2022-07-29T11:47:35;5.20;;;3.10;;
2502;SDS011;1262;50.918;6.922;2022-07-29T11:50:04;3.27;;;2.33;;
2502;SDS011;1262;50.918;6.922;2022-07-29T11:52:32;4.07;;;2.80;;
2502;SDS011;1262;50.918;6.922;2022-07-29T11:55:02;5.13;;;3.00;;
2502;SDS011;1262;50.918;6.922;2022-07-29T11:57:30;5.80;;;2.90;;
2502;SDS011;1262;50.918;6.922;2022-07-29T11:59:59;3.40;;;3.10;;
2502;SDS011;1262;50.918;6.922;2022-07-29T12:02:37;8.40;;;3.80;;
2502;SDS011;1262;50.918;6.922;2022-07-29T12:05:05;4.90;;;3.00;;
2502;SDS011;1262;50.918;6.922;2022-07-29T12:07:32;3.90;;;2.50;;
2502;SDS011;1262;50.918;6.922;2022-07-29T12:10:00;6.90;;;3.10;;
2502;SDS011;1262;50.918;6.922;2022-07-29T12:12:28;3.90;;;2.50;;
2502;SDS011;1262;50.918;6.922;2022-07-29T12:14:55;5.07;;;2.60;;
2502;SDS011;1262;50.918;6.922;2022-07-29T12:17:27;3.17;;;2.30;;
2502;SDS011;1262;50.918;6.922;2022-07-29T12:19:56;4.17;;;2.70;;
2502;SDS011;1262;50.918;6.922;2022-07-29T12:22:24;6.73;;;3.20;;
2502;SDS011;1262;50.918;6.922;2022-07-29T12:24:52;3.33;;;2.73;;
2502;SDS011;1262;50.918;6.922;2022-07-29T12:27:20;4.03;;;2.63;;
2502;SDS011;1262;50.918;6.922;2022-07-29T12:29:55;3.93;;;2.63;;
2502;SDS011;1262;50.918;6.922;2022-07-29T12:32:22;6.07;;;2.97;;
2502;SDS011;1262;50.918;6.922;2022-07-29T12:34:51;6.07;;;2.63;;
2502;SDS011;1262;50.918;6.922;2022-07-29T12:37:18;6.10;;;2.80;;
2502;SDS011;1262;50.918;6.922;2022-07-29T12:39:46;4.30;;;2.60;;
2502;SDS011;1262;50.918;6.922;2022-07-29T12:42:14;5.73;;;2.60;;
2502;SDS011;1262;50.918;6.922;2022-07-29T12:44:43;4.83;;;2.60;;
2502;SDS011;1262;50.918;6.922;2022-07-29T12:47:10;2.70;;;2.50;;
2502;SDS011;1262;50.918;6.922;2022-07-29T12:49:38;4.37;;;2.90;;
2502;SDS011;1262;50.918;6.922;2022-07-29T12:54:48;3.87;;;2.53;;
2502;SDS011;1262;50.918;6.922;2022-07-29T12:57:15;3.50;;;2.93;;
2502;SDS011;1262;50.918;6.922;2022-07-29T12:59:43;3.97;;;2.50;;
2502;SDS011;1262;50.918;6.922;2022-07-29T13:02:20;3.50;;;2.63;;
2502;SDS011;1262;50.918;6.922;2022-07-29T13:04:54;5.63;;;2.43;;
2502;SDS011;1262;50.918;6.922;2022-07-29T13:07:23;5.37;;;3.20;;
2502;SDS011;1262;50.918;6.922;2022-07-29T13:09:53;3.37;;;2.30;;
2502;SDS011;1262;50.918;6.922;2022-07-29T13:12:20;5.40;;;3.00;;
2502;SDS011;1262;50.918;6.922;2022-07-29T13:14:48;5.77;;;2.80;;
2502;SDS011;1262;50.918;6.922;2022-07-29T13:17:16;5.60;;;2.80;;
2502;SDS011;1262;50.918;6.922;2022-07-29T13:19:44;7.10;;;2.40;;
2502;SDS011;1262;50.918;6.922;2022-07-29T13:22:12;4.90;;;2.70;;
2502;SDS011;1262;50.918;6.922;2022-07-29T13:24:47;4.17;;;2.60;;
2502;SDS011;1262;50.918;6.922;2022-07-29T13:27:16;4.30;;;2.50;;
2502;SDS011;1262;50.918;6.922;2022-07-29T13:29:43;6.70;;;3.13;;
2502;SDS011;1262;50.918;6.922;2022-07-29T13:32:11;4.43;;;2.40;;
2502;SDS011;1262;50.918;6.922;2022-07-29T13:34:39;5.83;;;3.17;;
2502;SDS011;1262;50.918;6.922;2022-07-29T13:37:06;3.13;;;2.50;;
2502;SDS011;1262;50.918;6.922;2022-07-29T13:39:33;5.23;;;3.27;;
2502;SDS011;1262;50.918;6.922;2022-07-29T13:42:02;4.37;;;2.83;;
2502;SDS011;1262;50.918;6.922;2022-07-29T13:44:30;5.53;;;2.83;;
2502;SDS011;1262;50.918;6.922;2022-07-29T13:46:58;8.70;;;3.40;;
2502;SDS011;1262;50.918;6.922;2022-07-29T13:49:26;7.07;;;3.70;;
2502;SDS011;1262;50.918;6.922;2022-07-29T13:51:53;5.30;;;3.50;;
2502;SDS011;1262;50.918;6.922;2022-07-29T13:54:20;10.43;;;2.90;;
2502;SDS011;1262;50.918;6.922;2022-07-29T13:56:49;4.10;;;3.60;;
2502;SDS011;1262;50.918;6.922;2022-07-29T13:59:16;6.83;;;4.07;;
2502;SDS011;1262;50.918;6.922;2022-07-29T14:01:45;5.60;;;3.50;;
2502;SDS011;1262;50.918;6.922;2022-07-29T14:04:12;7.00;;;3.57;;
2502;SDS011;1262;50.918;6.922;2022-07-29T14:06:40;4.07;;;3.20;;
2502;SDS011;1262;50.918;6.922;2022-07-29T14:09:07;7.07;;;3.47;;
2502;SDS011;1262;50.918;6.922;2022-07-29T14:11:35;6.00;;;3.10;;
2502;SDS011;1262;50.918;6.922;2022-07-29T14:14:03;4.23;;;3.20;;
2502;SDS011;1262;50.918;6.922;2022-07-29T14:16:30;7.67;;;3.10;;
2502;SDS011;1262;50.918;6.922;2022-07-29T14:18:59;6.47;;;3.53;;
2502;SDS011;1262;50.918;6.922;2022-07-29T14:21:26;4.93;;;3.63;;
2502;SDS011;1262;50.918;6.922;2022-07-29T14:23:53;8.43;;;3.77;;
2502;SDS011;1262;50.918;6.922;2022-07-29T14:26:20;5.80;;;3.50;;
2502;SDS011;1262;50.918;6.922;2022-07-29T14:28:48;10.07;;;4.40;;
2502;SDS011;1262;50.918;6.922;2022-07-29T14:31:15;7.37;;;4.50;;
2502;SDS011;1262;50.918;6.922;2022-07-29T14:33:43;6.47;;;3.43;;
2502;SDS011;1262;50.918;6.922;2022-07-29T14:36:11;6.23;;;3.60;;
2502;SDS011;1262;50.918;6.922;2022-07-29T14:38:38;8.87;;;3.27;;
2502;SDS011;1262;50.918;6.922;2022-07-29T14:41:06;12.80;;;4.20;;
2502;SDS011;1262;50.918;6.922;2022-07-29T14:43:33;6.70;;;3.63;;
2502;SDS011;1262;50.918;6.922;2022-07-29T14:46:00;5.30;;;4.27;;
2502;SDS011;1262;50.918;6.922;2022-07-29T14:48:28;7.67;;;4.50;;
2502;SDS011;1262;50.918;6.922;2022-07-29T14:50:55;7.67;;;3.03;;
2502;SDS011;1262;50.918;6.922;2022-07-29T14:53:25;5.77;;;3.47;;
2502;SDS011;1262;50.918;6.922;2022-07-29T14:55:52;9.20;;;3.63;;
2502;SDS011;1262;50.918;6.922;2022-07-29T14:58:19;6.40;;;3.20;;
2502;SDS011;1262;50.918;6.922;2022-07-29T15:00:47;10.83;;;3.40;;
2502;SDS011;1262;50.918;6.922;2022-07-29T15:03:14;3.80;;;3.10;;
2502;SDS011;1262;50.918;6.922;2022-07-29T15:05:42;4.83;;;2.80;;
2502;SDS011;1262;50.918;6.922;2022-07-29T15:08:09;3.03;;;2.67;;
2502;SDS011;1262;50.918;6.922;2022-07-29T15:10:37;4.13;;;2.60;;
2502;SDS011;1262;50.918;6.922;2022-07-29T15:13:05;5.20;;;2.77;;
2502;SDS011;1262;50.918;6.922;2022-07-29T15:15:32;4.20;;;2.80;;
2502;SDS011;1262;50.918;6.922;2022-07-29T15:17:59;5.10;;;2.67;;
2502;SDS011;1262;50.918;6.922;2022-07-29T15:20:26;7.53;;;3.00;;
2502;SDS011;1262;50.918;6.922;2022-07-29T15:22:54;9.80;;;3.80;;
2502;SDS011;1262;50.918;6.922;2022-07-29T15:25:21;5.53;;;2.90;;
2502;SDS011;1262;50.918;6.922;2022-07-29T15:27:50;7.57;;;3.10;;
2502;SDS011;1262;50.918;6.922;2022-07-29T15:30:17;6.90;;;3.10;;
2502;SDS011;1262;50.918;6.922;2022-07-29T15:32:44;3.97;;;2.37;;
2502;SDS011;1262;50.918;6.922;2022-07-29T15:35:11;4.80;;;3.00;;
2502;SDS011;1262;50.918;6.922;2022-07-29T15:37:39;4.77;;;3.13;;
2502;SDS011;1262;50.918;6.922;2022-07-29T15:40:07;4.50;;;2.80;;
2502;SDS011;1262;50.918;6.922;2022-07-29T15:42:34;3.97;;;2.77;;